« Back
NWS Peachtree City, Ga » Text Product » CSG Terminal Aerodrome Forecast


Printer-friendly Version
Current Version              Previous Versions:   1  2  3  4  5  6  7  8  9  

Terminal Aerodrome Forecast

186
FTUS42 KFFC 241738
TAFCSG
TAF
KCSG 241738Z 2418/2518 10006KT P6SM SCT250
     FM242300 12005KT P6SM BKN150
     FM250500 16003KT P6SM VCSH BKN050
     FM250800 16004KT P6SM -RA OVC025
      TEMPO 2509/2512 4SM -RA BR BKN015
     FM251200 16005KT 3SM -RA BR BKN020 PROB30 2515/2518 TSRA
      BKN025CB=

USA.gov is the U.S. government's official web portal to all federal, state and local government web resources and services.